Time;durP1;ratioP1;P1;durP2;ratioP2;P2;SDS_P1;SDS_P2;PMS_P1;PMS_P2;Temp;Humidity;BMP_temperature;BMP_pressure;BME280_temperature;BME280_humidity;BME280_pressure;Samples;Min_cycle;Max_cycle;Signal;HPM_P1;HPM_P2
2023/08/29 00:02:17;;;;;;;;;;;20.70;71.30;;;20.15;61.42;99292.94;10371024;28;1972;-71
2023/08/29 00:07:12;;;;;;;;;;;20.70;71.30;;;20.14;61.31;99281.47;10371688;28;905;-71
2023/08/29 00:12:08;;;;;;;;;;;20.70;71.30;;;20.14;61.43;99267.41;10370341;28;827;-71
2023/08/29 00:17:04;;;;;;;;;;;20.60;71.30;;;20.14;61.30;99270.03;10371376;28;861;-71
2023/08/29 00:21:59;;;;;;;;;;;20.60;71.20;;;20.14;61.52;99277.97;10370184;28;1979;-71
2023/08/29 00:26:54;;;;;;;;;;;20.60;71.20;;;20.14;61.21;99280.63;10370735;28;898;-71
2023/08/29 00:31:50;;;;;;;;;;;20.60;71.20;;;20.13;61.37;99257.78;10370134;28;1104;-71
2023/08/29 00:36:45;;;;;;;;;;;20.60;71.20;;;20.13;61.45;99273.66;10369847;28;834;-71
2023/08/29 00:41:41;;;;;;;;;;;20.60;71.20;;;20.13;61.25;99268.34;10370025;28;1972;-71
2023/08/29 00:46:36;;;;;;;;;;;20.60;71.20;;;20.12;61.27;99261.34;10369877;28;811;-71
2023/08/29 00:51:32;;;;;;;;;;;20.60;71.10;;;20.12;61.29;99274.56;10368786;28;1006;-71
2023/08/29 00:56:27;;;;;;;;;;;20.60;71.20;;;20.11;61.48;99271.06;10368325;28;894;-71
2023/08/29 01:01:22;;;;;;;;;;;20.70;71.20;;;20.11;61.40;99275.53;10369381;28;889;-71
2023/08/29 01:06:18;;;;;;;;;;;20.60;71.10;;;20.10;61.26;99272.03;10368542;28;1908;-71
2023/08/29 01:11:14;;;;;;;;;;;20.60;71.10;;;20.11;61.35;99268.44;10368968;28;865;-71
2023/08/29 01:16:09;;;;;;;;;;;20.60;71.20;;;20.12;61.49;99263.97;10368849;28;782;-71
2023/08/29 01:21:04;;;;;;;;;;;20.60;71.00;;;20.11;61.36;99255.19;10368086;28;792;-71
2023/08/29 01:26:00;;;;;;;;;;;20.60;71.10;;;20.13;61.25;99277.13;10367382;28;1961;-71
2023/08/29 01:30:56;;;;;;;;;;;20.60;71.20;;;20.12;61.25;99282.50;10367040;28;1262;-71
2023/08/29 01:35:51;;;;;;;;;;;20.60;71.10;;;20.11;61.21;99278.16;10367350;28;882;-71
2023/08/29 01:40:47;;;;;;;;;;;20.60;71.10;;;20.10;61.27;99284.41;10367356;28;819;-71
2023/08/29 01:45:42;;;;;;;;;;;20.60;71.10;;;20.09;61.36;99291.47;10367682;28;1913;-71
2023/08/29 01:50:38;;;;;;;;;;;20.60;71.10;;;20.09;61.18;99311.81;10367013;28;814;-71
2023/08/29 01:55:33;;;;;;;;;;;20.60;71.10;;;20.08;61.26;99316.25;10367410;28;854;-71
2023/08/29 02:00:28;;;;;;;;;;;20.60;71.10;;;20.08;61.17;99339.22;10367681;28;880;-71
2023/08/29 02:05:24;;;;;;;;;;;20.60;71.00;;;20.07;61.33;99330.44;10367041;28;1902;-72
2023/08/29 02:10:19;;;;;;;;;;;20.60;70.90;;;20.08;61.33;99336.56;10367055;28;813;-71
2023/08/29 02:15:14;;;;;;;;;;;20.60;71.00;;;20.07;61.36;99327.78;10366977;28;852;-71
2023/08/29 02:20:10;;;;;;;;;;;20.60;71.00;;;20.06;61.18;99325.22;10366373;28;862;-71
2023/08/29 02:25:05;;;;;;;;;;;20.60;71.00;;;20.06;61.26;99346.38;10366741;28;1973;-71
2023/08/29 02:30:01;;;;;;;;;;;20.60;71.90;;;20.05;61.20;99350.81;10366220;28;1128;-71
2023/08/29 02:34:56;;;;;;;;;;;20.60;71.00;;;20.05;61.32;99326.16;10367251;28;818;-71
2023/08/29 02:39:51;;;;;;;;;;;20.60;71.00;;;20.04;61.28;99316.50;10374673;28;774;-71
2023/08/29 02:44:47;;;;;;;;;;;20.60;71.00;;;20.04;61.29;99303.28;10374941;28;1910;-71
2023/08/29 02:49:42;;;;;;;;;;;20.60;71.00;;;20.04;61.38;99305.94;10373428;28;933;-71
2023/08/29 02:54:38;;;;;;;;;;;20.50;70.90;;;20.05;61.33;99291.78;10373784;28;925;-71
2023/08/29 02:59:33;;;;;;;;;;;20.60;71.00;;;20.04;61.14;99295.34;10373621;28;1056;-71
2023/08/29 03:04:28;;;;;;;;;;;20.50;70.80;;;20.04;61.13;99290.94;10373899;28;1956;-71
2023/08/29 03:09:24;;;;;;;;;;;20.50;70.90;;;20.04;61.22;99285.66;10373259;28;980;-71
2023/08/29 03:14:19;;;;;;;;;;;20.60;70.90;;;20.04;61.22;99282.13;10372940;28;870;-71
2023/08/29 03:19:15;;;;;;;;;;;20.50;70.90;;;20.03;61.08;99273.34;10372866;28;830;-71
2023/08/29 03:24:10;;;;;;;;;;;20.50;70.80;;;20.02;61.12;99265.50;10373325;28;1970;-71
2023/08/29 03:29:06;;;;;;;;;;;20.50;70.90;;;20.01;61.29;99247.91;10372991;28;1277;-71
2023/08/29 03:34:02;;;;;;;;;;;20.50;70.80;;;20.01;61.27;99255.84;10372258;28;948;-71
2023/08/29 03:38:57;;;;;;;;;;;20.50;70.80;;;20.01;61.18;99255.84;10373058;28;945;-71
2023/08/29 03:43:53;;;;;;;;;;;20.50;70.80;;;20.00;60.95;99254.16;10372507;28;1965;-71
2023/08/29 03:48:48;;;;;;;;;;;20.50;70.80;;;20.01;61.16;99248.75;10371740;28;791;-71
2023/08/29 03:53:44;;;;;;;;;;;20.50;70.70;;;20.01;61.28;99245.28;10371436;28;939;-71
2023/08/29 03:58:39;;;;;;;;;;;20.50;70.80;;;20.00;61.24;99244.44;10371336;28;830;-71
2023/08/29 04:03:34;;;;;;;;;;;20.50;70.70;;;20.00;61.18;99257.66;10371038;28;1910;-71
2023/08/29 04:08:30;;;;;;;;;;;20.50;70.70;;;20.01;61.13;99261.16;10371972;28;948;-71
2023/08/29 04:13:25;;;;;;;;;;;20.50;70.70;;;20.01;61.09;99255.84;10370163;28;851;-71
2023/08/29 04:18:21;;;;;;;;;;;20.50;70.70;;;20.02;61.03;99249.63;10370553;28;841;-71
2023/08/29 04:23:16;;;;;;;;;;;20.50;70.60;;;20.02;60.95;99247.84;10370402;28;1964;-71
2023/08/29 04:28:19;;;;;;;;;;;20.50;70.60;;;20.02;60.88;99249.63;10370422;28;1446;-71
2023/08/29 04:33:14;;;;;;;;;;;20.50;71.40;;;20.02;61.05;99252.28;10370552;28;894;-71
2023/08/29 04:38:10;;;;;;;;;;;20.50;70.60;;;20.01;61.09;99242.63;10369838;28;886;-71
2023/08/29 04:43:05;;;;;;;;;;;20.50;70.60;;;20.01;60.95;99242.63;10369483;28;1971;-71
2023/08/29 04:48:00;;;;;;;;;;;20.50;70.60;;;20.00;60.90;99233.00;10369438;28;806;-71
2023/08/29 04:52:56;;;;;;;;;;;20.50;70.60;;;20.00;61.09;99240.94;10369562;28;850;-71
2023/08/29 04:57:54;;;;;;;;;;;20.50;70.60;;;20.01;60.97;99232.03;10368422;28;888;-71
2023/08/29 05:02:49;;;;;;;;;;;20.50;70.50;;;20.02;61.12;99233.78;10368457;28;1902;-71
2023/08/29 05:07:45;;;;;;;;;;;20.50;70.50;;;20.01;61.17;99232.03;10369190;28;994;-71
2023/08/29 05:12:41;;;;;;;;;;;20.50;70.50;;;20.01;60.97;99229.41;10368389;28;770;-71
2023/08/29 05:17:36;;;;;;;;;;;20.50;70.60;;;20.00;61.01;99230.34;10368774;28;874;-71
2023/08/29 05:22:32;;;;;;;;;;;20.50;70.50;;;19.99;61.10;99233.94;10368151;28;1902;-71
2023/08/29 05:27:27;;;;;;;;;;;20.50;70.50;;;19.98;61.13;99237.53;10368425;28;1008;-71
2023/08/29 05:32:28;;;;;;;;;;;20.50;70.50;;;19.98;60.99;99229.59;10486180;27;1650;-69
2023/08/29 05:37:24;;;;;;;;;;;20.50;70.60;;;19.98;61.19;99232.25;10486379;27;945;-70
2023/08/29 05:42:20;;;;;;;;;;;20.50;70.50;;;19.98;61.07;99234.88;10486748;27;822;-70
2023/08/29 05:47:15;;;;;;;;;;;20.50;70.60;;;20.05;60.77;99236.22;10486553;27;845;-69
2023/08/29 05:52:10;;;;;;;;;;;20.50;70.60;;;20.03;60.95;99238.09;10485118;27;1992;-71
2023/08/29 05:57:06;;;;;;;;;;;20.50;70.40;;;20.06;60.84;99243.19;10484959;27;917;-70
2023/08/29 06:02:03;;;;;;;;;;;20.50;70.50;;;20.03;61.12;99240.75;10486122;27;837;-70
2023/08/29 06:06:58;;;;;;;;;;;20.50;70.50;;;20.02;61.06;99244.34;10485876;27;872;-70
2023/08/29 06:11:53;;;;;;;;;;;20.50;70.50;;;20.00;61.24;99248.88;10484179;27;1910;-70
2023/08/29 06:16:49;;;;;;;;;;;20.50;70.60;;;20.01;61.11;99248.75;10484830;27;919;-71
2023/08/29 06:21:44;;;;;;;;;;;20.50;70.60;;;20.05;61.00;99249.44;10484715;27;874;-69
2023/08/29 06:26:40;;;;;;;;;;;20.50;70.50;;;20.03;61.00;99253.97;10484691;27;766;-71
2023/08/29 06:31:35;;;;;;;;;;;20.50;70.60;;;20.01;61.10;99255.84;10484884;27;1898;-69
2023/08/29 06:36:31;;;;;;;;;;;20.50;70.70;;;20.02;61.14;99254.94;10483735;27;990;-69
2023/08/29 06:41:26;;;;;;;;;;;20.50;70.50;;;20.02;61.01;99255.78;10470404;27;812;-69
2023/08/29 06:46:22;;;;;;;;;;;20.50;70.40;;;20.01;61.10;99255.84;10454962;27;888;-70
2023/08/29 06:51:18;;;;;;;;;;;20.50;70.50;;;20.00;61.00;99259.47;10455939;27;1979;-70
2023/08/29 06:56:13;;;;;;;;;;;20.50;70.50;;;20.00;60.98;99251.53;10456750;27;872;-66
2023/08/29 07:01:09;;;;;;;;;;;20.50;70.30;;;19.95;61.15;99254.44;10454896;27;935;-66
2023/08/29 07:06:04;;;;;;;;;;;20.50;70.40;;;19.91;61.16;99259.06;10455548;27;962;-66
2023/08/29 07:10:59;;;;;;;;;;;20.40;70.50;;;19.89;61.17;99257.47;10455307;27;1917;-68
2023/08/29 07:15:55;;;;;;;;;;;20.40;70.50;;;19.89;61.22;99257.47;10455049;27;809;-68
2023/08/29 07:20:50;;;;;;;;;;;20.40;70.30;;;19.88;61.13;99247.81;10455437;27;845;-69
2023/08/29 07:25:46;;;;;;;;;;;20.40;70.40;;;19.88;61.14;99246.00;10454098;27;761;-69
2023/08/29 07:30:42;;;;;;;;;;;20.40;70.30;;;19.89;61.24;99255.66;10454402;27;1990;-68
2023/08/29 07:35:37;;;;;;;;;;;20.40;70.40;;;19.89;61.19;99252.16;10454194;27;824;-69
2023/08/29 07:40:35;;;;;;;;;;;20.40;70.60;;;19.88;61.11;99258.38;10453387;27;845;-69
2023/08/29 07:45:30;;;;;;;;;;;20.40;70.50;;;19.89;61.16;99252.16;10453204;27;813;-70
2023/08/29 07:50:25;;;;;;;;;;;20.40;70.60;;;19.91;61.02;99256.44;10452975;27;1980;-69
2023/08/29 07:55:21;;;;;;;;;;;20.40;70.30;;;19.90;61.10;99260.00;10452159;27;881;-66
2023/08/29 08:00:16;;;;;;;;;;;20.40;70.40;;;19.88;61.11;99261.03;10453476;27;857;-68
2023/08/29 08:05:11;;;;;;;;;;;20.40;70.60;;;19.88;60.91;99268.97;10451863;27;868;-68
2023/08/29 08:10:07;;;;;;;;;;;20.40;70.40;;;19.83;60.99;99276.31;10451503;27;2046;-68
2023/08/29 08:15:04;;;;;;;;;;;20.30;70.20;;;19.81;60.88;99280.88;10452076;27;755;-68
2023/08/29 08:19:59;;;;;;;;;;;20.30;70.10;;;19.79;60.82;99280.09;10452468;27;851;-68
2023/08/29 08:24:55;;;;;;;;;;;20.30;69.80;;;19.79;60.63;99280.09;10452285;27;856;-68
2023/08/29 08:29:50;;;;;;;;;;;20.30;69.70;;;19.81;60.49;99288.81;10451199;27;1987;-68
2023/08/29 08:34:45;;;;;;;;;;;20.30;69.40;;;19.89;60.20;99295.34;10451279;27;817;-72
2023/08/29 08:39:41;;;;;;;;;;;20.40;69.30;;;19.95;59.84;99296.75;10451702;27;911;-72
2023/08/29 08:44:36;;;;;;;;;;;20.40;69.10;;;19.97;60.06;99305.47;10451560;27;793;-72
2023/08/29 08:49:32;;;;;;;;;;;20.40;69.20;;;19.96;59.98;99300.25;10451259;27;1974;-71
2023/08/29 08:54:27;;;;;;;;;;;20.40;69.20;;;19.96;60.08;99308.19;10450523;27;879;-72
2023/08/29 08:59:22;;;;;;;;;;;20.40;69.30;;;19.96;60.10;99308.19;10449796;27;885;-72
2023/08/29 09:04:18;;;;;;;;;;;20.40;69.40;;;19.98;60.05;99312.44;10450654;27;849;-72
2023/08/29 09:09:13;;;;;;;;;;;20.40;69.40;;;19.98;60.20;99307.16;10451081;27;1965;-72
2023/08/29 09:14:08;;;;;;;;;;;20.40;69.40;;;19.98;60.21;99311.59;10449406;27;1129;-72
2023/08/29 09:19:06;;;;;;;;;;;20.40;69.40;;;19.97;60.25;99305.47;10449278;27;955;-72
2023/08/29 09:24:04;;;;;;;;;;;20.40;69.50;;;19.98;60.23;99311.59;10450412;27;958;-70
2023/08/29 09:28:59;;;;;;;;;;;20.40;69.50;;;19.97;60.30;99315.19;10449331;28;1972;-71
2023/08/29 09:33:55;;;;;;;;;;;20.40;69.70;;;19.96;60.26;99321.41;10449479;28;904;-71
2023/08/29 09:38:50;;;;;;;;;;;20.40;69.60;;;19.98;60.34;99314.25;10450041;28;829;-71
2023/08/29 09:43:45;;;;;;;;;;;20.40;69.60;;;19.99;60.28;99318.59;10448766;28;939;-70
2023/08/29 09:48:41;;;;;;;;;;;20.40;69.60;;;19.99;60.21;99308.88;10450270;28;1981;-70
2023/08/29 09:53:36;;;;;;;;;;;20.50;69.60;;;20.01;60.24;99299.03;10449796;28;917;-71
2023/08/29 09:58:32;;;;;;;;;;;20.40;69.60;;;20.01;60.18;99304.31;10449970;28;820;-70
2023/08/29 10:03:27;;;;;;;;;;;20.50;69.60;;;20.03;60.10;99301.59;10448980;28;884;-70
2023/08/29 10:08:23;;;;;;;;;;;20.50;69.60;;;20.03;60.30;99296.31;10449465;28;1917;-72
2023/08/29 10:13:19;;;;;;;;;;;20.50;69.70;;;20.04;60.19;99295.34;10449450;28;879;-71
2023/08/29 10:18:14;;;;;;;;;;;20.40;69.60;;;20.06;60.17;99288.19;10455515;27;857;-71
2023/08/29 10:23:10;;;;;;;;;;;20.50;69.80;;;20.09;59.98;99286.19;10456796;27;871;-71
2023/08/29 10:28:05;;;;;;;;;;;20.50;69.70;;;20.12;60.10;99285.16;10456279;27;2215;-72
2023/08/29 10:33:01;;;;;;;;;;;20.50;69.50;;;20.15;59.88;99290.28;10455775;27;968;-72
2023/08/29 10:37:56;;;;;;;;;;;20.50;69.50;;;20.14;59.84;99280.63;10455904;27;865;-72
2023/08/29 10:42:51;;;;;;;;;;;20.50;69.50;;;20.12;59.88;99272.81;10456637;27;849;-72
2023/08/29 10:47:47;;;;;;;;;;;20.50;69.60;;;20.18;59.92;99273.38;10456120;27;1971;-71
2023/08/29 10:52:42;;;;;;;;;;;20.60;69.70;;;20.18;59.84;99266.28;10455468;27;779;-75
2023/08/29 10:57:38;;;;;;;;;;;20.50;69.50;;;20.21;59.83;99266.09;10455925;27;1011;-72
2023/08/29 11:02:35;;;;;;;;;;;20.50;69.60;;;20.22;59.81;99259.84;10455376;27;884;-72
2023/08/29 11:07:30;;;;;;;;;;;20.50;69.60;;;20.20;59.89;99247.66;10454484;27;880;-72
2023/08/29 11:12:25;;;;;;;;;;;20.60;69.80;;;20.22;59.81;99253.69;10453844;27;1947;-72
2023/08/29 11:17:24;;;;;;;;;;;20.50;69.60;;;20.21;59.86;99246.72;10454440;27;804;-71
2023/08/29 11:22:19;;;;;;;;;;;20.60;69.70;;;20.20;59.99;99237.94;10411055;27;1066;-71
2023/08/29 11:27:14;;;;;;;;;;;20.60;69.80;;;20.20;59.93;99232.66;10423527;27;1682;-71
2023/08/29 11:32:10;;;;;;;;;;;20.60;69.70;;;20.24;59.97;99228.00;10437823;27;1902;-71
2023/08/29 11:37:05;;;;;;;;;;;20.60;69.70;;;20.26;59.74;99226.97;10453065;27;932;-71
2023/08/29 11:42:01;;;;;;;;;;;20.60;69.70;;;20.26;59.79;99224.31;10454032;27;866;-71
2023/08/29 11:46:56;;;;;;;;;;;20.60;69.70;;;20.29;59.68;99216.19;10453226;27;833;-71
2023/08/29 11:51:51;;;;;;;;;;;20.60;69.80;;;20.30;59.63;99211.72;10452646;27;1905;-71
2023/08/29 11:56:47;;;;;;;;;;;20.60;69.70;;;20.29;59.65;99218.81;10452797;27;900;-71
2023/08/29 12:01:42;;;;;;;;;;;20.60;69.70;;;20.31;59.81;99216.09;10453446;27;801;-71
2023/08/29 12:06:37;;;;;;;;;;;20.60;69.70;;;20.23;60.02;99216.56;10452537;27;820;-71
2023/08/29 12:11:33;;;;;;;;;;;20.60;69.70;;;20.22;60.11;99209.56;10452243;27;1972;-71
2023/08/29 12:16:28;;;;;;;;;;;20.60;69.80;;;20.21;60.06;99201.72;10452820;27;887;-70
2023/08/29 12:21:24;;;;;;;;;;;20.60;69.70;;;20.17;60.22;99194.91;10451834;27;956;-69
2023/08/29 12:26:20;;;;;;;;;;;20.60;69.70;;;20.16;60.11;99207.31;10451693;27;875;-69
2023/08/29 12:31:15;;;;;;;;;;;20.60;69.80;;;20.14;60.23;99202.09;10451824;27;1955;-69
2023/08/29 12:36:11;;;;;;;;;;;20.60;69.80;;;20.14;60.44;99203.91;10451304;27;872;-67
2023/08/29 12:41:06;;;;;;;;;;;20.60;69.90;;;20.12;60.24;99198.72;10450636;27;837;-66
2023/08/29 12:46:02;;;;;;;;;;;20.60;69.90;;;20.11;60.27;99193.50;10450897;27;793;-66
2023/08/29 12:50:57;;;;;;;;;;;20.50;69.70;;;20.11;60.05;99190.84;10451270;27;1897;-69
2023/08/29 12:55:53;;;;;;;;;;;20.50;69.50;;;20.16;59.82;99174.72;10450345;27;783;-74
2023/08/29 13:00:48;;;;;;;;;;;20.50;69.40;;;20.19;59.76;99174.50;10450439;27;870;-69
2023/08/29 13:05:44;;;;;;;;;;;20.60;69.50;;;20.22;59.89;99171.66;10450261;27;983;-69
2023/08/29 13:10:39;;;;;;;;;;;20.60;69.50;;;20.22;59.83;99167.22;10449860;27;1901;-69
2023/08/29 13:15:34;;;;;;;;;;;20.60;69.40;;;20.24;59.74;99161.84;10449085;27;931;-68
2023/08/29 13:20:32;;;;;;;;;;;20.60;69.30;;;20.27;59.60;99161.66;10449658;27;891;-69
2023/08/29 13:25:28;;;;;;;;;;;20.60;69.40;;;20.32;59.47;99154.25;10449723;27;774;-69
2023/08/29 13:30:24;;;;;;;;;;;20.60;69.30;;;20.39;59.24;99152.09;10449342;27;1961;-69
2023/08/29 13:35:19;;;;;;;;;;;20.60;69.20;;;20.31;59.56;99145.47;10449525;28;881;-69
2023/08/29 13:40:17;;;;;;;;;;;20.70;69.40;;;20.22;60.01;99146.03;10449995;28;872;-68
2023/08/29 13:45:13;;;;;;;;;;;20.60;69.40;;;20.17;60.07;99145.47;10449049;28;935;-69
2023/08/29 13:50:09;;;;;;;;;;;20.60;69.50;;;20.13;60.02;99146.63;10450137;27;1949;-69
2023/08/29 13:55:04;;;;;;;;;;;20.60;69.50;;;20.10;60.19;99149.47;10458304;27;832;-69
2023/08/29 14:00:00;;;;;;;;;;;20.60;69.60;;;20.08;60.18;99146.91;10457266;27;793;-69
2023/08/29 14:04:55;;;;;;;;;;;20.60;69.70;;;20.08;60.35;99154.00;10456648;27;867;-69
2023/08/29 14:09:51;;;;;;;;;;;20.50;69.70;;;20.06;60.42;99161.19;10457709;27;1898;-69
2023/08/29 14:14:46;;;;;;;;;;;20.50;69.70;;;20.04;60.37;99155.13;10457526;27;1057;-69
2023/08/29 14:19:41;;;;;;;;;;;20.50;69.80;;;20.03;60.38;99156.09;10456847;27;884;-69
2023/08/29 14:24:37;;;;;;;;;;;20.50;69.80;;;20.03;60.40;99161.38;10456592;27;864;-69
2023/08/29 14:29:33;;;;;;;;;;;20.50;69.80;;;20.03;60.51;99166.69;10456119;27;1906;-68
2023/08/29 14:34:29;;;;;;;;;;;20.50;69.80;;;20.03;60.39;99161.38;10456138;27;829;-68
2023/08/29 14:39:26;;;;;;;;;;;20.50;69.90;;;20.02;60.54;99160.53;10456003;27;805;-69
2023/08/29 14:44:21;;;;;;;;;;;20.50;69.80;;;20.03;60.38;99159.59;10455972;27;775;-69
2023/08/29 14:49:16;;;;;;;;;;;20.50;69.90;;;20.05;60.39;99164.78;10455589;27;2220;-69
2023/08/29 14:54:12;;;;;;;;;;;20.50;70.00;;;20.08;60.28;99170.72;10455412;27;801;-69
2023/08/29 14:59:07;;;;;;;;;;;20.50;69.80;;;20.09;60.36;99174.22;10455189;27;867;-69
2023/08/29 15:04:03;;;;;;;;;;;20.50;69.80;;;20.11;60.31;99180.28;10454633;27;892;-69
2023/08/29 15:08:58;;;;;;;;;;;20.50;69.80;;;20.13;60.15;99181.03;10455858;27;1906;-69
2023/08/29 15:13:53;;;;;;;;;;;20.50;69.80;;;20.30;59.83;99175.56;10455972;27;852;-69
2023/08/29 15:18:49;;;;;;;;;;;20.60;69.90;;;20.53;59.21;99170.59;10454403;27;828;-69
2023/08/29 15:23:45;;;;;;;;;;;20.70;69.70;;;20.61;58.89;99164.84;10454808;27;903;-69
2023/08/29 15:28:41;;;;;;;;;;;20.70;69.80;;;20.63;59.03;99171.72;10453277;27;1984;-69
2023/08/29 15:33:36;;;;;;;;;;;20.70;69.60;;;20.32;60.04;99165.69;10454411;27;825;-69
2023/08/29 15:38:31;;;;;;;;;;;20.70;69.80;;;20.23;60.13;99155.69;10454274;27;884;-68
2023/08/29 15:43:27;;;;;;;;;;;20.70;69.90;;;20.21;60.31;99160.22;10453481;27;774;-69
2023/08/29 15:48:22;;;;;;;;;;;20.70;69.90;;;20.20;60.19;99153.25;10453260;27;1966;-69
2023/08/29 15:53:17;;;;;;;;;;;20.60;69.80;;;20.17;60.34;99132.25;10453110;27;880;-69
2023/08/29 15:58:14;;;;;;;;;;;20.60;69.90;;;20.15;60.31;99147.41;10454160;27;916;-69
2023/08/29 16:03:09;;;;;;;;;;;20.60;70.00;;;20.14;60.39;99150.97;10452401;27;928;-68
2023/08/29 16:08:05;;;;;;;;;;;20.60;69.90;;;20.10;60.51;99152.97;10452527;27;1906;-69
2023/08/29 16:13:00;;;;;;;;;;;20.60;70.00;;;20.11;60.40;99148.53;10451365;27;850;-69
2023/08/29 16:17:55;;;;;;;;;;;20.60;70.00;;;20.12;60.34;99155.50;10452021;27;830;-68
2023/08/29 16:22:51;;;;;;;;;;;20.60;70.00;;;20.11;60.47;99162.59;10452575;27;864;-69
2023/08/29 16:27:47;;;;;;;;;;;20.60;70.00;;;20.12;60.43;99153.72;10452684;27;1400;-69
2023/08/29 16:32:42;;;;;;;;;;;20.60;69.90;;;20.13;60.22;99154.56;10451424;27;1910;-69
2023/08/29 16:37:38;;;;;;;;;;;20.60;70.00;;;20.12;60.33;99156.38;10451602;27;820;-69
2023/08/29 16:42:33;;;;;;;;;;;20.60;70.10;;;20.13;60.35;99151.94;10451769;27;867;-69
2023/08/29 16:47:28;;;;;;;;;;;20.60;70.00;;;20.13;60.38;99157.22;10451005;27;777;-68
2023/08/29 16:52:24;;;;;;;;;;;20.70;70.10;;;20.13;60.30;99149.28;10451208;27;1981;-69
2023/08/29 16:57:19;;;;;;;;;;;20.60;70.00;;;20.13;60.39;99154.56;10450551;27;946;-69
2023/08/29 17:02:15;;;;;;;;;;;20.60;70.00;;;20.14;60.44;99150.97;10451058;27;784;-69
2023/08/29 17:07:10;;;;;;;;;;;20.60;70.00;;;20.13;60.43;99151.94;10450311;27;833;-69
2023/08/29 17:12:05;;;;;;;;;;;20.60;70.00;;;20.12;60.29;99151.09;10450019;27;1913;-69
2023/08/29 17:17:01;;;;;;;;;;;20.60;69.90;;;20.14;60.34;99150.97;10450031;27;926;-69
2023/08/29 17:21:56;;;;;;;;;;;20.60;69.90;;;20.14;60.49;99153.63;10450507;27;805;-69
2023/08/29 17:26:52;;;;;;;;;;;20.60;69.90;;;20.14;60.49;99154.47;10449747;27;848;-69
2023/08/29 17:31:47;;;;;;;;;;;20.60;69.90;;;20.13;60.39;99151.94;10448872;27;1989;-69
2023/08/29 17:36:42;;;;;;;;;;;20.60;69.90;;;20.13;60.38;99147.47;10449930;28;940;-69
2023/08/29 17:41:38;;;;;;;;;;;20.60;70.00;;;20.14;60.35;99143.03;10450184;28;780;-69
2023/08/29 17:46:33;;;;;;;;;;;20.60;70.00;;;20.15;60.41;99150.03;10449989;28;789;-69
2023/08/29 17:51:28;;;;;;;;;;;20.60;70.00;;;20.16;60.42;99142.94;10449404;28;1917;-69
2023/08/29 17:56:24;;;;;;;;;;;20.60;69.90;;;20.15;60.40;99136.81;10449826;28;906;-73
2023/08/29 18:01:19;;;;;;;;;;;20.60;70.00;;;20.23;60.01;99136.34;10448540;28;837;-71
2023/08/29 18:06:15;;;;;;;;;;;20.60;69.70;;;20.20;60.34;99141.78;10448407;28;1186;-71
2023/08/29 18:11:11;;;;;;;;;;;20.70;69.80;;;20.20;60.36;99136.50;10449894;28;1972;-71
2023/08/29 18:16:07;;;;;;;;;;;20.70;69.80;;;20.18;60.31;99139.25;10448774;28;949;-71
2023/08/29 18:21:02;;;;;;;;;;;20.60;69.70;;;20.20;60.33;99136.50;10449325;28;837;-71
2023/08/29 18:25:58;;;;;;;;;;;20.70;69.80;;;20.20;60.32;99132.09;10448874;28;797;-71
2023/08/29 18:30:54;;;;;;;;;;;20.70;69.90;;;20.22;60.29;99124.03;10448682;28;1913;-71
2023/08/29 18:35:49;;;;;;;;;;;20.70;69.90;;;20.21;60.15;99117.91;10449078;27;821;-71
2023/08/29 18:40:45;;;;;;;;;;;20.70;69.90;;;20.22;60.24;99118.75;10455909;27;889;-71
2023/08/29 18:45:40;;;;;;;;;;;20.70;69.90;;;20.21;60.18;99112.59;10455985;27;813;-71
2023/08/29 18:50:36;;;;;;;;;;;20.70;69.80;;;20.23;60.29;99115.16;10455553;27;1910;-71
2023/08/29 18:55:31;;;;;;;;;;;20.70;69.80;;;20.22;60.21;99124.03;10455424;27;906;-70
2023/08/29 19:00:27;;;;;;;;;;;20.70;69.70;;;20.23;60.24;99129.25;10455154;27;800;-71
2023/08/29 19:05:23;;;;;;;;;;;20.70;69.80;;;20.20;60.23;99128.56;10455630;27;871;-71
2023/08/29 19:10:18;;;;;;;;;;;20.70;69.80;;;20.21;60.26;99123.19;10455031;27;1910;-71
2023/08/29 19:15:14;;;;;;;;;;;20.70;69.70;;;20.21;60.30;99128.47;10454727;27;779;-71
2023/08/29 19:20:09;;;;;;;;;;;20.70;69.80;;;20.21;60.17;99131.13;10454392;27;878;-71
2023/08/29 19:25:04;;;;;;;;;;;20.70;69.80;;;20.23;60.30;99138.97;10454859;27;801;-71
2023/08/29 19:30:04;;;;;;;;;;;20.70;69.70;;;20.25;60.29;99137.06;10454636;27;1989;-71
2023/08/29 19:34:59;;;;;;;;;;;20.70;69.70;;;20.24;60.30;99138.88;10453870;27;808;-71
2023/08/29 19:39:55;;;;;;;;;;;20.70;69.70;;;20.25;60.13;99137.06;10453741;27;776;-71
2023/08/29 19:44:51;;;;;;;;;;;20.70;69.70;;;20.24;60.34;99138.03;10454290;27;872;-71
2023/08/29 19:49:47;;;;;;;;;;;20.70;69.70;;;20.24;60.34;99141.50;10453847;27;1917;-72
2023/08/29 19:54:42;;;;;;;;;;;20.70;69.80;;;20.25;60.30;99145.00;10453040;27;888;-71
2023/08/29 19:59:38;;;;;;;;;;;20.70;69.80;;;20.23;60.36;99141.63;10453460;27;945;-71
2023/08/29 20:04:33;;;;;;;;;;;20.70;69.80;;;20.24;60.34;99140.66;10452623;27;895;-71
2023/08/29 20:09:28;;;;;;;;;;;20.70;69.80;;;20.23;60.42;99134.53;10452434;27;1910;-71
2023/08/29 20:14:24;;;;;;;;;;;20.70;69.80;;;20.24;60.25;99130.94;10452227;27;913;-72
2023/08/29 20:19:19;;;;;;;;;;;20.70;69.80;;;20.26;60.25;99130.84;10452079;27;970;-71
2023/08/29 20:24:15;;;;;;;;;;;20.70;69.70;;;20.25;60.23;99126.47;10452164;27;882;-71
2023/08/29 20:29:11;;;;;;;;;;;20.70;69.80;;;20.27;60.18;99125.44;10451602;27;1967;-71
2023/08/29 20:34:06;;;;;;;;;;;20.70;69.70;;;20.27;60.33;99133.38;10451596;27;946;-71
2023/08/29 20:39:02;;;;;;;;;;;20.70;69.70;;;20.27;60.32;99133.38;10451271;27;840;-71
2023/08/29 20:43:57;;;;;;;;;;;20.70;69.70;;;20.27;60.31;99133.38;10452042;27;811;-71
2023/08/29 20:48:53;;;;;;;;;;;20.80;69.80;;;20.26;60.24;99131.69;10450765;27;1905;-71
2023/08/29 20:53:48;;;;;;;;;;;20.80;69.70;;;20.26;60.27;99126.41;10450787;27;801;-71
2023/08/29 20:58:44;;;;;;;;;;;20.70;69.70;;;20.27;60.26;99129.88;10451119;27;767;-71
2023/08/29 21:03:40;;;;;;;;;;;20.80;69.70;;;20.26;60.29;99125.56;10449873;27;1071;-71
2023/08/29 21:08:35;;;;;;;;;;;20.80;69.70;;;20.25;60.27;99119.41;10450124;27;1917;-72
2023/08/29 21:13:31;;;;;;;;;;;20.80;69.70;;;20.26;60.18;99122.91;10450117;27;865;-71
2023/08/29 21:18:26;;;;;;;;;;;20.70;69.70;;;20.25;60.40;99124.72;10449365;27;849;-72
2023/08/29 21:23:22;;;;;;;;;;;20.70;69.70;;;20.26;60.38;99125.56;10449958;27;967;-71
2023/08/29 21:28:17;;;;;;;;;;;20.70;69.70;;;20.25;60.30;99116.78;10449342;27;1918;-71
2023/08/29 21:33:12;;;;;;;;;;;20.80;70.60;;;20.26;60.37;99121.09;10450298;27;766;-71
2023/08/29 21:38:08;;;;;;;;;;;20.70;69.70;;;20.27;60.26;99119.31;10449777;28;773;-71
2023/08/29 21:43:03;;;;;;;;;;;20.70;69.70;;;20.29;60.31;99112.97;10448951;28;905;-71
2023/08/29 21:47:59;;;;;;;;;;;20.80;69.70;;;20.29;60.13;99106.81;10449414;28;849;-71
2023/08/29 21:52:54;;;;;;;;;;;20.80;69.80;;;20.29;60.23;99106.81;10449863;28;1913;-71
2023/08/29 21:57:50;;;;;;;;;;;20.80;69.80;;;20.28;60.29;99098.03;10448641;28;858;-71
2023/08/29 22:02:45;;;;;;;;;;;20.80;69.70;;;20.29;60.26;99101.53;10449113;28;855;-71
2023/08/29 22:07:40;;;;;;;;;;;20.80;69.70;;;20.29;60.25;99085.66;10449594;28;808;-71
2023/08/29 22:12:36;;;;;;;;;;;20.80;69.70;;;20.29;60.30;99088.31;10452511;27;1969;-71
2023/08/29 22:17:31;;;;;;;;;;;20.80;69.70;;;20.27;60.39;99079.59;10456949;27;868;-71
2023/08/29 22:22:27;;;;;;;;;;;20.80;69.70;;;20.27;60.25;99077.78;10456804;27;929;-71
2023/08/29 22:27:22;;;;;;;;;;;20.80;69.70;;;20.27;60.25;99074.31;10457201;27;774;-71
2023/08/29 22:32:18;;;;;;;;;;;20.80;69.70;;;20.27;60.33;99064.56;10456169;27;1906;-71
2023/08/29 22:37:13;;;;;;;;;;;20.80;69.60;;;20.27;60.32;99053.97;10456145;27;874;-71
2023/08/29 22:42:08;;;;;;;;;;;20.80;69.70;;;20.27;60.31;99056.63;10456504;27;879;-71
2023/08/29 22:47:04;;;;;;;;;;;20.80;69.70;;;20.28;60.14;99049.56;10456409;27;903;-71